Time;durP1;ratioP1;P1;durP2;ratioP2;P2;SDS_P1;SDS_P2;PMS_P1;PMS_P2;Temp;Humidity;BMP_temperature;BMP_pressure;BME280_temperature;BME280_humidity;BME280_pressure;Samples;Min_cycle;Max_cycle;Signal;HPM_P1;HPM_P2
2024/03/04 00:02:46;;;;;;;19.70;13.00;;;;;;;8.27;82.31;99272.69;129968;1273;114842;-70
2024/03/04 00:05:48;;;;;;;26.90;16.20;;;;;;;8.23;82.70;99277.52;129641;1267;209671;-71
2024/03/04 00:08:53;;;;;;;26.20;15.40;;;;;;;8.20;82.67;99275.52;129929;1261;115110;-70
2024/03/04 00:11:55;;;;;;;23.00;14.50;;;;;;;8.17;82.66;99279.27;129829;1282;114814;-71
2024/03/04 00:14:59;;;;;;;26.50;15.30;;;;;;;8.15;82.91;99277.06;129731;1267;115217;-71
2024/03/04 00:18:01;;;;;;;23.40;13.90;;;;;;;8.14;83.11;99278.35;129473;1276;115196;-70
2024/03/04 00:21:05;;;;;;;24.60;14.90;;;;;;;8.13;83.15;99274.52;129738;1264;114735;-71
2024/03/04 00:24:09;;;;;;;24.60;15.40;;;;;;;8.13;83.15;99274.70;129738;1263;114753;-70
2024/03/04 00:27:11;;;;;;;30.90;20.40;;;;;;;8.11;83.15;99270.91;129736;1265;115327;-70
2024/03/04 00:30:13;;;;;;;21.60;13.60;;;;;;;8.08;83.06;99267.85;129768;1282;114778;-71
2024/03/04 00:33:15;;;;;;;23.50;14.00;;;;;;;8.04;83.46;99271.44;129730;1282;114798;-71
2024/03/04 00:36:22;;;;;;;18.90;12.70;;;;;;;8.00;83.63;99272.23;129664;1265;114748;-70
2024/03/04 00:39:24;;;;;;;23.50;13.50;;;;;;;7.96;83.55;99273.48;129700;1271;114756;-70
2024/03/04 00:42:37;;;;;;;28.50;17.80;;;;;;;7.94;83.49;99272.92;129726;1264;115315;-70
2024/03/04 00:45:45;;;;;;;20.40;12.70;;;;;;;7.91;83.91;99270.21;129731;1265;114665;-70
2024/03/04 00:48:48;;;;;;;29.20;17.80;;;;;;;7.88;83.53;99271.09;129715;1282;115138;-70
2024/03/04 00:51:49;;;;;;;30.50;19.20;;;;;;;7.83;84.17;99276.88;129550;1266;114816;-69
2024/03/04 00:54:51;;;;;;;22.50;13.80;;;;;;;7.79;83.73;99275.53;129915;1273;115265;-71
2024/03/04 00:57:55;;;;;;;28.40;17.10;;;;;;;7.75;83.86;99276.08;129696;1272;115247;-72
2024/03/04 01:00:57;;;;;;;22.70;16.70;;;;;;;7.71;84.18;99277.69;129696;1272;114805;-71
2024/03/04 01:03:59;;;;;;;29.40;18.20;;;;;;;7.67;84.13;99278.11;129743;1273;114805;-71
2024/03/04 01:07:01;;;;;;;23.10;14.60;;;;;;;7.61;84.16;99283.00;129839;1270;114754;-71
2024/03/04 01:10:04;;;;;;;26.30;15.90;;;;;;;7.55;84.50;99283.55;129629;1263;114923;-70
2024/03/04 01:13:07;;;;;;;28.40;16.20;;;;;;;7.49;84.92;99287.56;129743;1282;114822;-70
2024/03/04 01:16:10;;;;;;;30.80;20.20;;;;;;;7.44;84.65;99289.42;129785;1264;114693;-69
2024/03/04 01:19:13;;;;;;;28.50;18.00;;;;;;;7.41;84.79;99287.12;129730;1264;115349;-69
2024/03/04 01:22:17;;;;;;;29.20;19.50;;;;;;;7.36;84.63;99285.75;129722;1265;114728;-69
2024/03/04 01:25:19;;;;;;;27.40;20.00;;;;;;;7.31;84.68;99286.04;129831;1263;115228;-69
2024/03/04 01:28:22;;;;;;;32.20;20.60;;;;;;;7.26;84.85;99284.15;129802;1260;114905;-69
2024/03/04 01:31:24;;;;;;;27.10;17.40;;;;;;;7.21;84.70;99280.51;129729;1264;129723;-70
2024/03/04 01:34:27;;;;;;;30.50;19.60;;;;;;;7.15;85.24;99280.28;129715;1261;114777;-70
2024/03/04 01:37:29;;;;;;;21.30;14.30;;;;;;;7.10;85.41;99278.23;129824;1273;114753;-70
2024/03/04 01:40:33;;;;;;;29.30;15.20;;;;;;;7.06;85.78;99280.39;129640;1273;114924;-72
2024/03/04 01:43:34;;;;;;;27.90;17.30;;;;;;;7.03;86.42;99285.16;129666;1268;114808;-71
2024/03/04 01:46:36;;;;;;;25.20;15.70;;;;;;;7.02;86.82;99285.75;129702;1282;114840;-70
2024/03/04 01:49:38;;;;;;;24.90;16.80;;;;;;;7.02;86.66;99288.27;129681;1273;114764;-70
2024/03/04 01:52:40;;;;;;;29.20;18.70;;;;;;;7.00;87.05;99284.95;129810;1273;114811;-70
2024/03/04 01:55:46;;;;;;;27.60;17.00;;;;;;;7.01;87.13;99286.16;129687;1273;114744;-71
2024/03/04 01:58:52;;;;;;;24.10;14.70;;;;;;;7.01;87.34;99286.66;129727;1261;114914;-70
2024/03/04 02:01:56;;;;;;;26.40;17.60;;;;;;;7.01;87.74;99286.15;129511;1264;115017;-70
2024/03/04 02:04:59;;;;;;;22.50;14.30;;;;;;;7.01;87.88;99288.27;129602;1265;114799;-71
2024/03/04 02:08:02;;;;;;;29.20;17.20;;;;;;;7.02;88.44;99288.61;129672;1264;114821;-71
2024/03/04 02:11:05;;;;;;;22.90;15.70;;;;;;;7.01;88.22;99289.34;129733;1282;115370;-70
2024/03/04 02:14:07;;;;;;;21.60;14.70;;;;;;;7.01;88.76;99293.77;129925;1263;114826;-71
2024/03/04 02:17:14;;;;;;;22.50;14.30;;;;;;;7.01;88.71;99292.20;129792;1265;114779;-71
2024/03/04 02:20:18;;;;;;;24.40;13.20;;;;;;;7.00;88.90;99297.03;129744;1263;114787;-71
2024/03/04 02:23:20;;;;;;;16.80;8.40;;;;;;;6.99;88.91;99294.96;129807;1260;114791;-71
2024/03/04 02:26:22;;;;;;;25.60;15.70;;;;;;;6.98;89.27;99298.36;129653;1265;114831;-71
2024/03/04 02:29:25;;;;;;;24.10;15.90;;;;;;;6.97;89.52;99297.00;129791;1260;114828;-70
2024/03/04 02:32:27;;;;;;;30.60;19.80;;;;;;;6.96;89.59;99300.05;129798;1264;114748;-70
2024/03/04 02:35:33;;;;;;;29.30;17.90;;;;;;;6.96;89.59;99298.31;129728;1264;114744;-70
2024/03/04 02:38:38;;;;;;;25.10;15.30;;;;;;;6.95;89.36;99299.04;129823;1265;114812;-70
2024/03/04 02:41:40;;;;;;;29.10;17.10;;;;;;;6.94;89.67;99303.02;129678;1264;128804;-70
2024/03/04 02:44:45;;;;;;;23.40;14.20;;;;;;;6.93;89.87;99301.67;129734;1272;114739;-71
2024/03/04 02:47:47;;;;;;;34.60;18.40;;;;;;;6.89;89.81;99301.98;129791;1264;115357;-70
2024/03/04 02:50:51;;;;;;;31.20;17.40;;;;;;;6.86;89.88;99305.91;130038;1262;114722;-71
2024/03/04 02:53:55;;;;;;;27.90;18.60;;;;;;;6.84;89.66;99307.42;129737;1264;115211;-71
2024/03/04 02:56:58;;;;;;;23.40;15.60;;;;;;;6.81;89.79;99302.40;129716;1280;128537;-70
2024/03/04 03:00:00;;;;;;;23.10;14.40;;;;;;;6.79;90.14;99306.79;129720;1263;114847;-71
2024/03/04 03:03:06;;;;;;;25.60;16.20;;;;;;;6.76;89.79;99313.13;129740;1264;115257;-70
2024/03/04 03:06:09;;;;;;;28.80;16.30;;;;;;;6.75;90.31;99312.15;129722;1260;115176;-72
2024/03/04 03:09:16;;;;;;;31.50;19.10;;;;;;;6.73;90.23;99316.31;129612;1266;115280;-71
2024/03/04 03:12:21;;;;;;;23.30;15.00;;;;;;;6.69;90.10;99316.31;129751;1264;115176;-70
2024/03/04 03:15:23;;;;;;;23.60;15.60;;;;;;;6.67;90.12;99316.25;129612;1260;114750;-70
2024/03/04 03:18:27;;;;;;;30.80;18.40;;;;;;;6.64;90.31;99314.08;129738;1261;114780;-71
2024/03/04 03:21:33;;;;;;;21.80;13.30;;;;;;;6.61;90.47;99320.07;129706;1260;114828;-71
2024/03/04 03:24:35;;;;;;;27.20;16.90;;;;;;;6.60;90.44;99320.70;129856;1263;115389;-71
2024/03/04 03:27:38;;;;;;;19.00;11.30;;;;;;;6.58;90.38;99316.19;129819;1264;115224;-71
2024/03/04 03:30:40;;;;;;;23.90;14.50;;;;;;;6.55;90.41;99314.88;129730;1263;114744;-71
2024/03/04 03:33:42;;;;;;;25.10;14.80;;;;;;;6.52;90.70;99316.80;129851;1261;115269;-71
2024/03/04 03:36:45;;;;;;;30.20;17.90;;;;;;;6.50;90.65;99320.45;129854;1263;114813;-71
2024/03/04 03:39:47;;;;;;;30.60;17.90;;;;;;;6.48;90.68;99318.92;129841;1265;114798;-71
2024/03/04 03:42:50;;;;;;;30.50;18.80;;;;;;;6.47;90.85;99323.80;129448;1268;114841;-71
2024/03/04 03:45:52;;;;;;;24.00;14.50;;;;;;;6.45;90.67;99324.59;129724;1261;114804;-70
2024/03/04 03:48:55;;;;;;;26.40;16.30;;;;;;;6.42;90.60;99322.41;129875;1261;114810;-71
2024/03/04 03:51:57;;;;;;;24.60;16.30;;;;;;;6.40;90.72;99328.02;129766;1273;114850;-71
2024/03/04 03:54:58;;;;;;;27.00;17.90;;;;;;;6.38;91.04;99327.02;129688;1263;115101;-71
2024/03/04 03:58:00;;;;;;;30.20;19.20;;;;;;;6.36;90.84;99330.51;129701;1263;115176;-71
2024/03/04 04:01:02;;;;;;;32.10;18.90;;;;;;;6.34;90.82;99330.27;129817;1264;114807;-71
2024/03/04 04:04:04;;;;;;;34.90;22.50;;;;;;;6.31;90.81;99332.52;129823;1260;114744;-71
2024/03/04 04:07:06;;;;;;;31.40;18.50;;;;;;;6.27;90.69;99336.07;129822;1263;115445;-71
2024/03/04 04:10:09;;;;;;;29.10;18.20;;;;;;;6.23;91.01;99334.30;129817;1263;114741;-72
2024/03/04 04:13:11;;;;;;;30.30;18.50;;;;;;;6.20;90.97;99330.20;129879;1264;115002;-71
2024/03/04 04:16:13;;;;;;;33.60;18.70;;;;;;;6.18;91.14;99330.99;129483;1267;114895;-70
2024/03/04 04:19:16;;;;;;;29.80;18.20;;;;;;;6.16;91.16;99331.27;129770;1264;114816;-70
2024/03/04 04:22:18;;;;;;;23.40;13.90;;;;;;;6.14;91.07;99334.17;129766;1264;115366;-69
2024/03/04 04:25:21;;;;;;;28.80;16.40;;;;;;;6.12;91.12;99335.73;129894;1264;114837;-69
2024/03/04 04:28:25;;;;;;;16.50;10.80;;;;;;;6.09;91.29;99335.67;129804;1264;115117;-72
2024/03/04 04:31:27;;;;;;;17.30;10.20;;;;;;;6.05;91.38;99333.91;129763;1282;114795;-72
2024/03/04 04:34:29;;;;;;;28.70;17.50;;;;;;;6.02;91.59;99335.45;129749;1264;115112;-72
2024/03/04 04:37:31;;;;;;;31.70;18.90;;;;;;;6.00;91.68;99334.85;129806;1282;114733;-71
2024/03/04 04:40:33;;;;;;;26.10;17.10;;;;;;;5.99;91.53;99339.33;129541;1275;128325;-71
2024/03/04 04:43:38;;;;;;;22.70;14.20;;;;;;;5.97;91.77;99343.84;129829;1261;114848;-71
2024/03/04 04:46:40;;;;;;;35.10;21.30;;;;;;;5.95;91.75;99345.34;129730;1259;114847;-71
2024/03/04 04:49:42;;;;;;;26.80;16.10;;;;;;;5.92;91.70;99344.73;130119;1260;114830;-71
2024/03/04 04:52:44;;;;;;;20.80;13.70;;;;;;;5.90;91.82;99342.16;129791;1264;114730;-71
2024/03/04 04:55:46;;;;;;;28.90;18.30;;;;;;;5.88;91.88;99344.92;129753;1264;114858;-71
2024/03/04 04:58:48;;;;;;;22.80;15.10;;;;;;;5.85;92.09;99342.59;129588;1282;115208;-71
2024/03/04 05:01:50;;;;;;;32.80;19.20;;;;;;;5.83;92.35;99345.70;129744;1259;114843;-72
2024/03/04 05:04:52;;;;;;;30.30;18.80;;;;;;;5.81;92.35;99346.15;129702;1265;114831;-70
2024/03/04 05:07:54;;;;;;;34.20;21.90;;;;;;;5.80;92.27;99346.37;129761;1265;114752;-70
2024/03/04 05:10:56;;;;;;;35.00;20.50;;;;;;;5.78;92.24;99343.61;129766;1259;115411;-70
2024/03/04 05:13:59;;;;;;;20.80;12.80;;;;;;;5.76;92.35;99344.23;129730;1280;114745;-70
2024/03/04 05:17:01;;;;;;;30.40;21.10;;;;;;;5.74;92.45;99346.30;129747;1264;114742;-71
2024/03/04 05:20:09;;;;;;;31.20;18.50;;;;;;;5.72;92.23;99346.39;129870;1264;115418;-70
2024/03/04 05:23:12;;;;;;;33.70;21.50;;;;;;;5.70;92.47;99350.19;129946;1264;114761;-71
2024/03/04 05:26:14;;;;;;;39.80;21.30;;;;;;;5.67;92.36;99353.31;130073;1261;115413;-70
2024/03/04 05:29:16;;;;;;;44.10;26.30;;;;;;;5.66;92.50;99353.91;129817;1264;114831;-70
2024/03/04 05:32:18;;;;;;;39.50;27.50;;;;;;;5.65;92.31;99356.61;129954;1264;114738;-70
2024/03/04 05:35:19;;;;;;;43.20;26.10;;;;;;;5.64;92.41;99354.86;129769;1263;115499;-70
2024/03/04 05:38:21;;;;;;;35.30;20.90;;;;;;;5.63;92.45;99356.68;129777;1263;114761;-70
2024/03/04 05:41:24;;;;;;;42.20;25.80;;;;;;;5.61;92.37;99364.73;129770;1264;114773;-70
2024/03/04 05:44:26;;;;;;;43.20;26.10;;;;;;;5.60;92.49;99365.31;129756;1265;114741;-69
2024/03/04 05:47:27;;;;;;;42.70;25.90;;;;;;;5.60;92.44;99367.98;129740;1264;114818;-70
2024/03/04 05:50:29;;;;;;;31.70;19.10;;;;;;;5.60;92.60;99366.56;129982;1263;114780;-70
2024/03/04 05:53:31;;;;;;;39.60;25.30;;;;;;;5.59;92.80;99369.06;129812;1259;116405;-70
2024/03/04 05:56:33;;;;;;;33.50;20.60;;;;;;;5.60;92.76;99369.21;129777;1259;114776;-70
2024/03/04 05:59:37;;;;;;;44.90;28.50;;;;;;;5.61;92.78;99373.24;130190;1262;114847;-70
2024/03/04 06:02:40;;;;;;;18.70;12.00;;;;;;;5.63;93.04;99375.82;129703;1276;127920;-70
2024/03/04 06:05:42;;;;;;;41.80;23.40;;;;;;;5.64;93.02;99375.58;130032;1260;114748;-70
2024/03/04 06:08:44;;;;;;;46.10;25.90;;;;;;;5.68;92.95;99376.50;129993;1260;114794;-70
2024/03/04 06:11:46;;;;;;;49.60;28.40;;;;;;;5.71;93.17;99376.37;129687;1282;114832;-71
2024/03/04 06:14:48;;;;;;;59.30;30.10;;;;;;;5.75;93.26;99381.15;129695;1260;114773;-70
2024/03/04 06:17:49;;;;;;;62.40;31.30;;;;;;;5.79;93.22;99385.21;129771;1264;114703;-71
2024/03/04 06:20:51;;;;;;;64.60;33.20;;;;;;;5.86;93.17;99386.16;129519;1264;114786;-71
2024/03/04 06:23:53;;;;;;;54.60;29.40;;;;;;;5.93;93.21;99386.73;129668;1275;114747;-71
2024/03/04 06:26:55;;;;;;;44.40;25.80;;;;;;;6.04;93.16;99393.86;129875;1260;114792;-71
2024/03/04 06:29:57;;;;;;;44.90;26.70;;;;;;;6.16;93.33;99390.65;129826;1277;114783;-71
2024/03/04 06:32:59;;;;;;;40.90;25.40;;;;;;;6.30;93.21;99391.27;129856;1263;114769;-70
2024/03/04 06:36:00;;;;;;;32.10;20.80;;;;;;;6.44;92.98;99390.81;129888;1282;114818;-71
2024/03/04 06:39:02;;;;;;;40.50;24.80;;;;;;;6.59;93.04;99387.80;129541;1261;114828;-71
2024/03/04 06:42:04;;;;;;;33.00;20.10;;;;;;;6.74;92.91;99389.00;129820;1263;115205;-71
2024/03/04 06:45:07;;;;;;;34.80;23.10;;;;;;;6.89;92.73;99390.97;129774;1264;114843;-71
2024/03/04 06:48:08;;;;;;;37.20;21.10;;;;;;;7.02;92.09;99397.77;129705;1259;128780;-71
2024/03/04 06:51:10;;;;;;;35.30;21.90;;;;;;;7.16;92.13;99399.55;129828;1259;114739;-70
2024/03/04 06:54:15;;;;;;;36.80;24.40;;;;;;;7.33;91.90;99398.19;129847;1264;114743;-70
2024/03/04 06:57:17;;;;;;;36.10;22.40;;;;;;;7.49;91.64;99404.13;129808;1264;114779;-71
2024/03/04 07:00:21;;;;;;;41.60;23.50;;;;;;;7.65;91.74;99394.77;129690;1276;114919;-71
2024/03/04 07:03:23;;;;;;;34.20;22.10;;;;;;;7.84;91.38;99395.21;129946;1263;114761;-70
2024/03/04 07:06:25;;;;;;;31.10;20.90;;;;;;;7.98;90.69;99405.31;129887;1263;114894;-71
2024/03/04 07:09:26;;;;;;;34.50;22.00;;;;;;;8.14;90.39;99408.02;129771;1264;114700;-72
2024/03/04 07:12:28;;;;;;;38.60;22.50;;;;;;;8.30;90.21;99413.04;129734;1259;115232;-71
2024/03/04 07:15:30;;;;;;;38.30;23.40;;;;;;;8.42;89.58;99421.47;129737;1282;115226;-71
2024/03/04 07:18:32;;;;;;;39.80;24.40;;;;;;;8.51;88.92;99421.35;129732;1264;114776;-71
2024/03/04 07:21:34;;;;;;;40.70;24.90;;;;;;;8.56;88.10;99419.68;129582;1266;115120;-71
2024/03/04 07:24:36;;;;;;;37.30;23.40;;;;;;;8.62;88.30;99421.10;129633;1282;114786;-70
2024/03/04 07:27:40;;;;;;;30.10;21.80;;;;;;;8.76;88.75;99418.91;129842;1264;114814;-71
2024/03/04 07:30:42;;;;;;;37.40;25.20;;;;;;;8.97;88.74;99417.73;129437;1267;127847;-72
2024/03/04 07:33:44;;;;;;;37.70;22.50;;;;;;;9.18;88.15;99418.29;129829;1263;114790;-71
2024/03/04 07:36:45;;;;;;;33.90;21.10;;;;;;;9.36;87.91;99420.63;129740;1264;114770;-71
2024/03/04 07:39:48;;;;;;;31.40;20.20;;;;;;;9.60;87.83;99419.59;129678;1259;114684;-71
2024/03/04 07:42:49;;;;;;;26.50;17.20;;;;;;;9.84;87.06;99416.20;129711;1264;115420;-71
2024/03/04 07:45:51;;;;;;;35.90;23.20;;;;;;;10.00;86.14;99417.38;129757;1259;114850;-70
2024/03/04 07:48:53;;;;;;;27.70;17.40;;;;;;;10.14;85.87;99417.92;129724;1263;114675;-71
2024/03/04 07:51:55;;;;;;;32.60;20.50;;;;;;;10.30;84.44;99424.27;129777;1264;114826;-71
2024/03/04 07:54:57;;;;;;;36.70;23.30;;;;;;;10.43;84.37;99420.48;129780;1259;115411;-71
2024/03/04 07:57:59;;;;;;;35.20;22.70;;;;;;;10.62;84.33;99422.27;129620;1281;114764;-71
2024/03/04 08:01:01;;;;;;;32.30;21.30;;;;;;;10.76;83.98;99429.07;129726;1260;115304;-70
2024/03/04 08:04:02;;;;;;;29.80;20.40;;;;;;;10.95;83.80;99427.50;129769;1264;115085;-71
2024/03/04 08:07:04;;;;;;;33.90;21.90;;;;;;;11.15;82.99;99427.11;129713;1264;114761;-71
2024/03/04 08:10:08;;;;;;;25.50;16.50;;;;;;;11.29;82.47;99428.46;129725;1265;114871;-71
2024/03/04 08:13:10;;;;;;;28.70;20.20;;;;;;;11.41;82.08;99429.33;129926;1258;114753;-72
2024/03/04 08:16:12;;;;;;;31.50;21.30;;;;;;;11.62;82.12;99428.62;129793;1282;114960;-71
2024/03/04 08:19:13;;;;;;;26.70;18.60;;;;;;;11.77;81.08;99428.15;129733;1275;114765;-71
2024/03/04 08:22:15;;;;;;;34.90;23.00;;;;;;;11.92;81.04;99425.15;129814;1263;115892;-72
2024/03/04 08:25:17;;;;;;;26.70;17.70;;;;;;;12.13;80.81;99429.09;129778;1259;114819;-71
2024/03/04 08:28:19;;;;;;;36.50;22.10;;;;;;;12.22;78.62;99433.69;129443;1266;114801;-71
2024/03/04 08:31:21;;;;;;;32.50;19.40;;;;;;;12.19;78.57;99436.04;129847;1274;115266;-72
2024/03/04 08:34:23;;;;;;;32.20;22.80;;;;;;;12.22;78.59;99435.13;129833;1264;115283;-71
2024/03/04 08:37:26;;;;;;;29.10;20.10;;;;;;;12.18;78.14;99433.37;129814;1282;128739;-70
2024/03/04 08:40:30;;;;;;;32.20;21.20;;;;;;;12.15;77.81;99430.58;129692;1263;114733;-71
2024/03/04 08:43:32;;;;;;;27.90;17.70;;;;;;;12.09;77.30;99431.33;129827;1259;115182;-71
2024/03/04 08:46:34;;;;;;;35.30;22.10;;;;;;;12.03;77.24;99431.59;129870;1264;114806;-71
2024/03/04 08:49:36;;;;;;;27.70;17.90;;;;;;;11.96;76.58;99429.87;129819;1282;114878;-71
2024/03/04 08:52:38;;;;;;;30.60;19.60;;;;;;;11.82;76.17;99425.45;129672;1259;114876;-71
2024/03/04 08:55:39;;;;;;;32.00;20.80;;;;;;;11.79;77.07;99422.24;129659;1263;114808;-71
2024/03/04 08:58:42;;;;;;;30.60;20.60;;;;;;;11.80;77.06;99424.68;129789;1260;114767;-72
2024/03/04 09:01:44;;;;;;;29.40;18.60;;;;;;;11.86;77.43;99422.52;129694;1264;114852;-70
2024/03/04 09:04:48;;;;;;;27.50;18.60;;;;;;;11.93;76.98;99420.96;129656;1259;114751;-72
2024/03/04 09:07:50;;;;;;;34.20;20.70;;;;;;;12.00;76.78;99424.65;129786;1263;114793;-69
2024/03/04 09:10:54;;;;;;;31.20;21.10;;;;;;;12.02;76.26;99431.67;129687;1259;114794;-71
2024/03/04 09:13:57;;;;;;;32.20;20.90;;;;;;;12.05;76.44;99430.73;129727;1259;114770;-71
2024/03/04 09:16:59;;;;;;;34.00;21.70;;;;;;;12.05;75.82;99430.93;129751;1262;114744;-71
2024/03/04 09:20:01;;;;;;;25.50;16.20;;;;;;;12.05;75.98;99426.95;129976;1262;114974;-72
2024/03/04 09:23:03;;;;;;;26.20;18.10;;;;;;;12.15;76.35;99428.08;129860;1261;114805;-71
2024/03/04 09:26:09;;;;;;;28.70;18.50;;;;;;;12.24;76.26;99430.34;129720;1264;114825;-71
2024/03/04 09:29:12;;;;;;;27.40;18.00;;;;;;;12.30;75.96;99430.59;129784;1263;114808;-71
2024/03/04 09:32:14;;;;;;;27.60;21.50;;;;;;;12.31;75.48;99433.92;129650;1264;128562;-71
2024/03/04 09:35:16;;;;;;;28.60;20.00;;;;;;;12.38;75.01;99439.53;129823;1261;115250;-72
2024/03/04 09:38:18;;;;;;;26.20;17.90;;;;;;;12.35;74.46;99444.60;129772;1264;114808;-71
2024/03/04 09:41:21;;;;;;;23.30;15.90;;;;;;;12.39;75.13;99447.48;129441;1259;114881;-72
2024/03/04 09:44:27;;;;;;;23.90;17.90;;;;;;;12.49;75.07;99445.02;129687;1263;115357;-71
2024/03/04 09:47:29;;;;;;;27.40;19.10;;;;;;;12.63;75.15;99444.55;129512;1267;115025;-71
2024/03/04 09:50:31;;;;;;;26.30;17.30;;;;;;;12.74;74.70;99446.42;129692;1263;114872;-71
2024/03/04 09:53:36;;;;;;;28.40;17.10;;;;;;;12.77;73.87;99445.70;129731;1263;114789;-71
2024/03/04 09:56:38;;;;;;;31.60;17.80;;;;;;;12.77;73.55;99443.04;129637;1266;116560;-71
2024/03/04 09:59:40;;;;;;;25.40;17.00;;;;;;;12.82;73.64;99448.92;129695;1263;115120;-70
2024/03/04 10:02:43;;;;;;;27.50;17.30;;;;;;;12.84;73.13;99451.96;129722;1259;114805;-70
2024/03/04 10:05:45;;;;;;;29.20;18.20;;;;;;;12.88;73.13;99450.83;129867;1264;114746;-71
2024/03/04 10:08:47;;;;;;;23.90;16.20;;;;;;;12.92;73.02;99448.55;129870;1264;114749;-70
2024/03/04 10:11:49;;;;;;;23.90;16.50;;;;;;;12.97;72.97;99443.52;129777;1259;114764;-71
2024/03/04 10:15:03;;;;;;;23.60;16.30;;;;;;;13.04;73.07;99444.27;129657;1261;128575;-71
2024/03/04 10:18:12;;;;;;;25.10;17.00;;;;;;;13.12;72.73;99444.77;129482;1281;114919;-71
2024/03/04 10:21:14;;;;;;;22.00;14.70;;;;;;;13.16;72.39;99443.02;129646;1265;114912;-69
2024/03/04 10:24:16;;;;;;;23.20;16.60;;;;;;;13.16;72.60;99444.99;129874;1260;114830;-70
2024/03/04 10:27:18;;;;;;;24.00;16.90;;;;;;;13.22;72.45;99444.90;129751;1282;114755;-69
2024/03/04 10:30:27;;;;;;;26.10;18.70;;;;;;;13.27;72.43;99441.38;129666;1263;114752;-69
2024/03/04 10:33:29;;;;;;;26.70;19.80;;;;;;;13.31;71.78;99441.42;129604;1267;127182;-69
2024/03/04 10:36:31;;;;;;;18.10;12.20;;;;;;;13.29;71.79;99440.45;129656;1263;114860;-69
2024/03/04 10:39:36;;;;;;;25.40;19.80;;;;;;;13.29;71.77;99439.60;129766;1263;115944;-69
2024/03/04 10:42:39;;;;;;;24.70;17.30;;;;;;;13.22;71.40;99445.46;129768;1259;114721;-70
2024/03/04 10:45:41;;;;;;;20.90;14.70;;;;;;;13.14;71.28;99445.02;129769;1264;115267;-70
2024/03/04 10:48:47;;;;;;;24.00;16.10;;;;;;;13.07;71.45;99448.35;129660;1278;115300;-70
2024/03/04 10:51:49;;;;;;;26.30;17.80;;;;;;;13.07;71.60;99450.17;129719;1263;127096;-70
2024/03/04 10:54:51;;;;;;;28.90;18.40;;;;;;;12.98;71.22;99447.39;129790;1263;114723;-70
2024/03/04 10:57:57;;;;;;;30.40;19.70;;;;;;;12.89;71.45;99448.58;129725;1278;115260;-70
2024/03/04 11:01:06;;;;;;;28.70;18.50;;;;;;;12.86;71.66;99448.06;129699;1259;114845;-70
2024/03/04 11:04:08;;;;;;;20.50;16.20;;;;;;;12.83;71.76;99446.14;129653;1260;114866;-70
2024/03/04 11:07:12;;;;;;;28.60;19.30;;;;;;;12.85;72.07;99443.13;129883;1263;115145;-70
2024/03/04 11:10:38;;;;;;;25.00;18.20;;;;;;;12.86;72.07;99444.86;129736;1264;114763;-70
2024/03/04 11:14:05;;;;;;;24.50;17.60;;;;;;;12.86;72.05;99444.84;128928;1275;116454;-71
2024/03/04 11:17:32;;;;;;;27.90;20.20;;;;;;;12.90;72.30;99451.17;128790;1268;114966;-70
2024/03/04 11:20:34;;;;;;;28.00;19.10;;;;;;;12.98;72.15;99450.30;128665;1268;114904;-71
2024/03/04 11:23:37;;;;;;;28.80;19.70;;;;;;;13.06;72.17;99447.73;129011;1273;114919;-71
2024/03/04 11:26:40;;;;;;;28.90;21.10;;;;;;;13.15;72.02;99446.89;128852;1273;114929;-71
2024/03/04 11:29:43;;;;;;;23.10;18.20;;;;;;;13.23;71.92;99443.09;128894;1268;115438;-71
2024/03/04 11:32:44;;;;;;;23.50;16.80;;;;;;;13.26;71.46;99437.61;128912;1273;115242;-71
2024/03/04 11:35:46;;;;;;;24.40;15.80;;;;;;;13.34;71.06;99439.05;129006;1272;114912;-70
2024/03/04 11:38:51;;;;;;;25.20;17.90;;;;;;;13.45;71.17;99436.98;129026;1283;114903;-71
2024/03/04 11:41:53;;;;;;;23.40;17.10;;;;;;;13.66;71.65;99437.16;128897;1290;114887;-72
2024/03/04 11:44:55;;;;;;;23.90;18.20;;;;;;;13.87;71.37;99437.80;128833;1268;115624;-72
2024/03/04 11:47:57;;;;;;;25.70;15.80;;;;;;;14.05;70.96;99433.46;128962;1272;115001;-71
2024/03/04 11:50:59;;;;;;;28.20;19.70;;;;;;;14.22;70.62;99432.19;129220;1264;115568;-71
2024/03/04 11:54:05;;;;;;;24.30;17.00;;;;;;;14.35;70.15;99431.88;129728;1265;114983;-71
2024/03/04 11:57:07;;;;;;;21.20;13.60;;;;;;;14.49;70.20;99433.79;129804;1278;114832;-71
2024/03/04 12:00:09;;;;;;;19.90;14.10;;;;;;;14.58;68.88;99433.59;129756;1263;114822;-70
2024/03/04 12:03:14;;;;;;;22.80;14.50;;;;;;;14.62;68.65;99431.15;129678;1260;114732;-70
2024/03/04 12:06:16;;;;;;;26.00;15.80;;;;;;;14.70;68.89;99429.31;129505;1264;114674;-70
2024/03/04 12:09:21;;;;;;;17.00;12.10;;;;;;;14.70;68.21;99428.97;129653;1282;114823;-70
2024/03/04 12:12:23;;;;;;;23.80;16.30;;;;;;;14.68;67.75;99429.99;129545;1259;116120;-70
2024/03/04 12:15:25;;;;;;;18.00;12.10;;;;;;;14.74;68.11;99423.58;129651;1263;114922;-70
2024/03/04 12:18:27;;;;;;;17.90;12.30;;;;;;;14.83;68.04;99424.64;129844;1260;114764;-70
2024/03/04 12:21:29;;;;;;;22.30;13.90;;;;;;;14.97;67.55;99425.52;129692;1281;127904;-69
2024/03/04 12:24:31;;;;;;;17.50;12.40;;;;;;;15.10;67.52;99426.02;129645;1259;114810;-69
2024/03/04 12:27:34;;;;;;;16.70;12.50;;;;;;;15.25;67.19;99422.65;129752;1264;115193;-70
2024/03/04 12:30:40;;;;;;;21.50;15.50;;;;;;;15.32;66.26;99423.64;129839;1259;114750;-69
2024/03/04 12:33:42;;;;;;;20.60;13.90;;;;;;;15.41;66.93;99421.70;129403;1267;114715;-70
2024/03/04 12:36:44;;;;;;;23.40;15.90;;;;;;;15.51;66.39;99421.23;129800;1282;115387;-70
2024/03/04 12:39:45;;;;;;;19.70;15.80;;;;;;;15.60;65.92;99429.66;129906;1260;114747;-70
2024/03/04 12:43:06;;;;;;;21.10;14.90;;;;;;;15.65;65.71;99431.23;129661;1264;128384;-70
2024/03/04 12:46:09;;;;;;;20.70;14.80;;;;;;;15.65;65.21;99431.00;129352;1264;114780;-69
2024/03/04 12:49:11;;;;;;;19.10;13.80;;;;;;;15.63;65.05;99429.77;129714;1276;114743;-69
2024/03/04 12:52:12;;;;;;;12.80;10.10;;;;;;;15.61;65.25;99434.78;129839;1265;114729;-70
2024/03/04 12:55:15;;;;;;;21.80;16.00;;;;;;;15.53;64.61;99438.11;129636;1265;114818;-70
2024/03/04 12:58:17;;;;;;;24.50;17.70;;;;;;;15.33;64.63;99441.09;129744;1260;115292;-70
2024/03/04 13:01:21;;;;;;;23.60;16.30;;;;;;;15.11;64.93;99446.33;129718;1265;114820;-71
2024/03/04 13:04:23;;;;;;;31.60;21.90;;;;;;;14.90;65.53;99447.42;129663;1282;114741;-71
2024/03/04 13:07:25;;;;;;;35.10;24.20;;;;;;;14.71;65.39;99452.95;129820;1259;114770;-70
2024/03/04 13:10:26;;;;;;;37.30;26.00;;;;;;;14.49;65.80;99456.76;129399;1269;114990;-71
2024/03/04 13:13:28;;;;;;;36.70;25.60;;;;;;;14.32;66.09;99455.79;129856;1264;114688;-70
2024/03/04 13:16:30;;;;;;;36.40;25.10;;;;;;;14.17;66.25;99459.86;129781;1275;114775;-71
2024/03/04 13:19:32;;;;;;;36.90;24.50;;;;;;;14.07;66.58;99458.27;129686;1265;114747;-70
2024/03/04 13:22:44;;;;;;;38.30;24.10;;;;;;;14.03;67.05;99462.04;129760;1259;115524;-69
2024/03/04 13:25:46;;;;;;;37.20;25.40;;;;;;;14.01;67.35;99461.42;129663;1268;114915;-70
2024/03/04 13:28:48;;;;;;;39.50;26.90;;;;;;;14.05;67.42;99463.66;129783;1263;115185;-70
2024/03/04 13:31:50;;;;;;;32.90;22.50;;;;;;;14.09;67.81;99463.14;129714;1275;114752;-73
2024/03/04 13:34:52;;;;;;;37.10;24.40;;;;;;;14.11;67.53;99463.34;129542;1260;114987;-70
2024/03/04 13:37:53;;;;;;;34.60;22.60;;;;;;;14.10;67.20;99461.14;129824;1263;114672;-74
2024/03/04 13:40:55;;;;;;;40.80;26.20;;;;;;;14.09;67.03;99462.41;129814;1273;115195;-72
2024/03/04 13:43:57;;;;;;;41.90;27.60;;;;;;;14.09;67.64;99466.42;129661;1259;128079;-73
2024/03/04 13:47:00;;;;;;;34.60;25.20;;;;;;;14.08;67.46;99470.09;129880;1265;114748;-73
2024/03/04 13:50:02;;;;;;;42.10;27.80;;;;;;;13.95;66.73;99472.85;129950;1263;114992;-73